createdAt,value
2019-02-15T00:00:03.923Z,1028.58
2019-02-15T00:00:44.564Z,1028.6
2019-02-15T00:01:25.175Z,1028.6
2019-02-15T00:02:05.767Z,1028.62
2019-02-15T00:02:46.364Z,1028.61
2019-02-15T00:03:26.954Z,1028.6
2019-02-15T00:04:07.540Z,1028.6
2019-02-15T00:04:48.152Z,1028.6
2019-02-15T00:05:28.730Z,1028.64
2019-02-15T00:06:09.337Z,1028.64
2019-02-15T00:06:49.990Z,1028.64
2019-02-15T00:07:30.586Z,1028.64
2019-02-15T00:08:11.214Z,1028.63
2019-02-15T00:08:51.816Z,1028.64
2019-02-15T00:09:32.428Z,1028.67
2019-02-15T00:10:13.031Z,1028.61
2019-02-15T00:10:53.634Z,1028.66
2019-02-15T00:11:34.230Z,1028.64
2019-02-15T00:12:14.844Z,1028.65
2019-02-15T00:12:55.448Z,1028.63
2019-02-15T00:13:36.066Z,1028.67
2019-02-15T00:14:16.695Z,1028.6
2019-02-15T00:14:57.290Z,1028.62
2019-02-15T00:15:37.882Z,1028.62
2019-02-15T00:16:18.467Z,1028.62
2019-02-15T00:16:59.061Z,1028.61
2019-02-15T00:17:39.671Z,1028.63
2019-02-15T00:18:20.256Z,1028.61
2019-02-15T00:19:00.876Z,1028.61
2019-02-15T00:19:41.508Z,1028.61
2019-02-15T00:20:22.114Z,1028.61
2019-02-15T00:21:02.708Z,1028.61
2019-02-15T00:21:43.350Z,1028.6
2019-02-15T00:22:23.948Z,1028.6
2019-02-15T00:23:04.556Z,1028.62
2019-02-15T00:23:45.152Z,1028.57
2019-02-15T00:24:25.732Z,1028.59
2019-02-15T00:25:06.344Z,1028.57
2019-02-15T00:25:46.956Z,1028.57
2019-02-15T00:26:27.538Z,1028.54
2019-02-15T00:27:08.162Z,1028.57
2019-02-15T00:27:48.780Z,1028.52
2019-02-15T00:28:29.381Z,1028.56
2019-02-15T00:29:10.007Z,1028.53
2019-02-15T00:29:50.552Z,1028.54
2019-02-15T00:30:31.158Z,1028.51
2019-02-15T00:31:11.761Z,1028.55
2019-02-15T00:31:52.350Z,1028.53
2019-02-15T00:32:32.942Z,1028.53
2019-02-15T00:33:13.529Z,1028.58
2019-02-15T00:33:54.143Z,1028.56
2019-02-15T00:34:34.746Z,1028.59
2019-02-15T00:35:15.360Z,1028.57
2019-02-15T00:35:55.958Z,1028.55
2019-02-15T00:36:36.557Z,1028.55
2019-02-15T00:37:17.156Z,1028.54
2019-02-15T00:37:57.779Z,1028.56
2019-02-15T00:38:38.394Z,1028.52
2019-02-15T00:39:18.995Z,1028.52
2019-02-15T00:39:59.590Z,1028.51
2019-02-15T00:40:40.188Z,1028.53
2019-02-15T00:41:20.783Z,1028.53
2019-02-15T00:42:01.412Z,1028.55
2019-02-15T00:42:42.056Z,1028.51
2019-02-15T00:43:22.684Z,1028.53
2019-02-15T00:44:03.272Z,1028.56
2019-02-15T00:44:43.900Z,1028.55
2019-02-15T00:45:24.530Z,1028.54
2019-02-15T00:46:05.176Z,1028.54
2019-02-15T00:46:45.780Z,1028.53
2019-02-15T00:47:26.360Z,1028.53
2019-02-15T00:48:06.947Z,1028.49
2019-02-15T00:48:47.554Z,1028.49
2019-02-15T00:49:28.163Z,1028.49
2019-02-15T00:50:08.832Z,1028.46
2019-02-15T00:50:49.457Z,1028.47
2019-02-15T00:51:30.048Z,1028.46
2019-02-15T00:52:10.646Z,1028.45
2019-02-15T00:52:51.253Z,1028.47
2019-02-15T00:53:31.864Z,1028.42
2019-02-15T00:54:12.479Z,1028.45
2019-02-15T00:54:53.070Z,1028.44
2019-02-15T00:55:33.694Z,1028.47
2019-02-15T00:56:14.284Z,1028.44
2019-02-15T00:56:54.889Z,1028.42
2019-02-15T00:57:35.475Z,1028.41
2019-02-15T00:58:16.072Z,1028.45
2019-02-15T00:58:56.688Z,1028.4
2019-02-15T00:59:37.280Z,1028.43
2019-02-15T01:00:17.870Z,1028.38
2019-02-15T01:00:58.456Z,1028.42
2019-02-15T01:01:39.076Z,1028.38
2019-02-15T01:02:19.726Z,1028.37
2019-02-15T01:03:00.321Z,1028.34
2019-02-15T01:03:40.954Z,1028.31
2019-02-15T01:04:21.545Z,1028.31
2019-02-15T01:05:02.148Z,1028.29
2019-02-15T01:05:42.768Z,1028.29
2019-02-15T01:06:23.390Z,1028.29
2019-02-15T01:07:03.988Z,1028.26
2019-02-15T01:07:44.636Z,1028.27
2019-02-15T01:08:25.243Z,1028.28
2019-02-15T01:09:05.843Z,1028.26
2019-02-15T01:09:46.433Z,1028.24
2019-02-15T01:10:27.041Z,1028.22
2019-02-15T01:11:07.660Z,1028.23
2019-02-15T01:11:48.244Z,1028.27
2019-02-15T01:12:29.128Z,1028.25
2019-02-15T01:13:09.743Z,1028.26
2019-02-15T01:13:50.359Z,1028.27
2019-02-15T01:14:30.987Z,1028.24
2019-02-15T01:15:11.617Z,1028.24
2019-02-15T01:15:52.200Z,1028.21
2019-02-15T01:16:32.826Z,1028.22
2019-02-15T01:17:13.414Z,1028.23
2019-02-15T01:17:54.016Z,1028.22
2019-02-15T01:18:34.612Z,1028.19
2019-02-15T01:19:15.196Z,1028.21
2019-02-15T01:19:55.811Z,1028.18
2019-02-15T01:20:36.399Z,1028.22
2019-02-15T01:21:17.003Z,1028.23
2019-02-15T01:21:57.603Z,1028.21
2019-02-15T01:22:38.216Z,1028.23
2019-02-15T01:23:18.814Z,1028.21
2019-02-15T01:23:59.423Z,1028.17
2019-02-15T01:24:40.011Z,1028.17
2019-02-15T01:25:20.633Z,1028.18
2019-02-15T01:26:01.228Z,1028.17
2019-02-15T01:26:41.830Z,1028.16
2019-02-15T01:27:22.422Z,1028.17
2019-02-15T01:28:03.028Z,1028.16
2019-02-15T01:28:43.619Z,1028.15
2019-02-15T01:29:24.227Z,1028.12
2019-02-15T01:30:04.851Z,1028.09
2019-02-15T01:30:46.681Z,1028.13
2019-02-15T01:31:27.293Z,1028.1
2019-02-15T01:32:07.915Z,1028.06
2019-02-15T01:32:48.499Z,1028.07
2019-02-15T01:33:29.116Z,1028.05
2019-02-15T01:34:09.780Z,1028.07
2019-02-15T01:34:50.386Z,1028.03
2019-02-15T01:35:30.993Z,1028
2019-02-15T01:36:11.592Z,1028.03
2019-02-15T01:36:52.173Z,1028.03
2019-02-15T01:37:32.763Z,1028.03
2019-02-15T01:38:13.362Z,1028.04
2019-02-15T01:38:53.964Z,1028
2019-02-15T01:39:34.543Z,1028.02
2019-02-15T01:40:15.154Z,1028.01
2019-02-15T01:40:55.791Z,1028.04
2019-02-15T01:41:36.395Z,1027.97
2019-02-15T01:42:16.983Z,1028
2019-02-15T01:42:57.580Z,1028.02
2019-02-15T01:43:39.968Z,1028.05
2019-02-15T01:44:18.844Z,1028.01
2019-02-15T01:44:59.454Z,1028.03
2019-02-15T01:45:40.059Z,1027.99
2019-02-15T01:46:20.828Z,1028.02
2019-02-15T01:47:01.423Z,1028
2019-02-15T01:47:42.019Z,1028.02
2019-02-15T01:48:22.614Z,1027.99
2019-02-15T01:49:03.220Z,1027.97
2019-02-15T01:49:43.810Z,1027.97
2019-02-15T01:50:24.414Z,1028.02
2019-02-15T01:51:05.025Z,1028
2019-02-15T01:51:45.640Z,1027.98
2019-02-15T01:52:26.222Z,1027.96
2019-02-15T01:53:06.815Z,1027.96
2019-02-15T01:53:47.430Z,1027.92
2019-02-15T01:54:28.047Z,1027.96
2019-02-15T01:55:08.638Z,1027.97
2019-02-15T01:55:49.231Z,1027.96
2019-02-15T01:56:29.843Z,1027.95
2019-02-15T01:57:10.515Z,1027.94
2019-02-15T01:57:51.113Z,1027.95
2019-02-15T01:58:31.715Z,1027.91
2019-02-15T01:59:12.328Z,1027.86
2019-02-15T01:59:52.941Z,1027.9
2019-02-15T02:00:33.539Z,1027.88
2019-02-15T02:01:14.139Z,1027.89
2019-02-15T02:01:54.733Z,1027.89
2019-02-15T02:02:35.327Z,1027.89
2019-02-15T02:03:15.929Z,1027.9
2019-02-15T02:03:56.519Z,1027.92
2019-02-15T02:04:37.112Z,1027.9
2019-02-15T02:05:17.711Z,1027.88
2019-02-15T02:05:58.569Z,1027.9
2019-02-15T02:06:39.288Z,1027.87
2019-02-15T02:07:19.881Z,1027.89
2019-02-15T02:08:00.469Z,1027.87
2019-02-15T02:08:41.056Z,1027.85
2019-02-15T02:09:21.662Z,1027.87
2019-02-15T02:10:02.250Z,1027.83
2019-02-15T02:10:42.834Z,1027.87
2019-02-15T02:11:23.426Z,1027.85
2019-02-15T02:12:04.045Z,1027.86
2019-02-15T02:12:44.632Z,1027.88
2019-02-15T02:13:25.237Z,1027.88
2019-02-15T02:14:05.929Z,1027.93
2019-02-15T02:14:46.580Z,1027.87
2019-02-15T02:15:27.175Z,1027.88
2019-02-15T02:16:07.751Z,1027.88
2019-02-15T02:16:48.341Z,1027.89
2019-02-15T02:17:28.983Z,1027.87
2019-02-15T02:18:09.613Z,1027.89
2019-02-15T02:18:50.223Z,1027.89
2019-02-15T02:19:30.827Z,1027.91
2019-02-15T02:20:11.465Z,1027.84
2019-02-15T02:20:52.048Z,1027.85
2019-02-15T02:21:32.654Z,1027.88
2019-02-15T02:22:13.287Z,1027.87
2019-02-15T02:22:53.869Z,1027.8
2019-02-15T02:23:34.465Z,1027.82
2019-02-15T02:24:15.085Z,1027.77
2019-02-15T02:24:55.666Z,1027.8
2019-02-15T02:25:36.269Z,1027.76
2019-02-15T02:26:16.850Z,1027.79
2019-02-15T02:26:57.491Z,1027.74
2019-02-15T02:27:38.080Z,1027.79
2019-02-15T02:28:18.691Z,1027.76
2019-02-15T02:28:59.277Z,1027.74
2019-02-15T02:29:39.872Z,1027.73
2019-02-15T02:30:20.483Z,1027.71
2019-02-15T02:31:01.089Z,1027.73
2019-02-15T02:31:41.676Z,1027.7
2019-02-15T02:32:22.283Z,1027.7
2019-02-15T02:33:02.866Z,1027.68
2019-02-15T02:33:43.471Z,1027.72
2019-02-15T02:34:24.069Z,1027.69
2019-02-15T02:35:04.661Z,1027.67
2019-02-15T02:35:45.261Z,1027.68
2019-02-15T02:36:25.862Z,1027.7
2019-02-15T02:37:06.455Z,1027.65
2019-02-15T02:37:47.049Z,1027.64
2019-02-15T02:38:27.647Z,1027.65
2019-02-15T02:39:08.237Z,1027.62
2019-02-15T02:39:48.834Z,1027.65
2019-02-15T02:40:29.423Z,1027.6
2019-02-15T02:41:10.012Z,1027.61
2019-02-15T02:41:50.647Z,1027.6
2019-02-15T02:42:31.225Z,1027.6
2019-02-15T02:43:11.817Z,1027.56
2019-02-15T02:43:59.339Z,1027.59
2019-02-15T02:44:33.047Z,1027.57
2019-02-15T02:45:13.648Z,1027.57
2019-02-15T02:45:54.255Z,1027.58
2019-02-15T02:46:34.855Z,1027.57
2019-02-15T02:47:15.461Z,1027.54
2019-02-15T02:47:56.060Z,1027.53
2019-02-15T02:48:36.700Z,1027.54
2019-02-15T02:49:17.281Z,1027.54
2019-02-15T02:49:57.903Z,1027.55
2019-02-15T02:50:38.499Z,1027.56
2019-02-15T02:51:19.098Z,1027.56
2019-02-15T02:51:59.691Z,1027.58
2019-02-15T02:52:40.280Z,1027.57
2019-02-15T02:53:20.862Z,1027.58
2019-02-15T02:54:01.441Z,1027.62
2019-02-15T02:54:42.031Z,1027.61
2019-02-15T02:55:22.636Z,1027.63
2019-02-15T02:56:03.227Z,1027.59
2019-02-15T02:56:43.847Z,1027.59
2019-02-15T02:57:24.446Z,1027.61
2019-02-15T02:58:05.035Z,1027.57
2019-02-15T02:58:45.623Z,1027.58
2019-02-15T02:59:26.223Z,1027.53
2019-02-15T03:00:06.875Z,1027.54
2019-02-15T03:00:47.427Z,1027.53
2019-02-15T03:01:28.041Z,1027.55
2019-02-15T03:02:08.653Z,1027.51
2019-02-15T03:02:49.327Z,1027.5
2019-02-15T03:03:29.847Z,1027.49
2019-02-15T03:04:10.445Z,1027.5
2019-02-15T03:04:51.034Z,1027.5
2019-02-15T03:05:31.657Z,1027.48
2019-02-15T03:06:12.251Z,1027.45
2019-02-15T03:06:52.844Z,1027.49
2019-02-15T03:07:33.465Z,1027.46
2019-02-15T03:08:14.039Z,1027.47
2019-02-15T03:08:54.635Z,1027.45
2019-02-15T03:09:35.229Z,1027.49
2019-02-15T03:10:15.819Z,1027.43
2019-02-15T03:10:56.419Z,1027.44
2019-02-15T03:11:37.004Z,1027.48
2019-02-15T03:12:17.617Z,1027.44
2019-02-15T03:12:58.289Z,1027.47
2019-02-15T03:13:38.928Z,1027.42
2019-02-15T03:14:19.525Z,1027.46
2019-02-15T03:15:00.411Z,1027.42
2019-02-15T03:15:40.789Z,1027.43
2019-02-15T03:16:21.441Z,1027.43
2019-02-15T03:17:02.105Z,1027.4
2019-02-15T03:17:42.709Z,1027.42
2019-02-15T03:18:23.352Z,1027.41
2019-02-15T03:19:03.949Z,1027.41
2019-02-15T03:19:44.565Z,1027.36
2019-02-15T03:20:31.044Z,1027.38
2019-02-15T03:21:05.761Z,1027.4
2019-02-15T03:21:46.370Z,1027.37
2019-02-15T03:22:26.959Z,1027.39
2019-02-15T03:23:07.551Z,1027.37
2019-02-15T03:23:48.153Z,1027.36
2019-02-15T03:24:28.737Z,1027.37
2019-02-15T03:25:09.326Z,1027.39
2019-02-15T03:25:49.913Z,1027.38
2019-02-15T03:26:30.510Z,1027.38
2019-02-15T03:27:11.119Z,1027.4
2019-02-15T03:27:51.709Z,1027.35
2019-02-15T03:28:32.329Z,1027.36
2019-02-15T03:29:12.921Z,1027.35
2019-02-15T03:29:53.506Z,1027.33
2019-02-15T03:30:34.105Z,1027.31
2019-02-15T03:31:14.719Z,1027.32
2019-02-15T03:31:55.307Z,1027.28
2019-02-15T03:32:35.911Z,1027.32
2019-02-15T03:33:16.515Z,1027.32
2019-02-15T03:33:57.191Z,1027.31
2019-02-15T03:34:37.789Z,1027.28
2019-02-15T03:35:18.358Z,1027.3
2019-02-15T03:35:58.977Z,1027.29
2019-02-15T03:36:39.581Z,1027.28
2019-02-15T03:37:20.160Z,1027.28
2019-02-15T03:38:00.755Z,1027.29
2019-02-15T03:38:41.346Z,1027.27
2019-02-15T03:39:21.943Z,1027.26
2019-02-15T03:40:02.531Z,1027.31
2019-02-15T03:40:43.134Z,1027.26
2019-02-15T03:41:23.721Z,1027.28
2019-02-15T03:42:04.306Z,1027.28
2019-02-15T03:42:44.923Z,1027.26
2019-02-15T03:43:25.547Z,1027.28
2019-02-15T03:44:06.138Z,1027.24
2019-02-15T03:44:46.733Z,1027.25
2019-02-15T03:45:27.336Z,1027.27
2019-02-15T03:46:07.911Z,1027.23
2019-02-15T03:46:48.507Z,1027.24
2019-02-15T03:47:29.107Z,1027.22
2019-02-15T03:48:09.689Z,1027.24
2019-02-15T03:48:50.274Z,1027.2
2019-02-15T03:49:30.860Z,1027.23
2019-02-15T03:50:11.463Z,1027.25
2019-02-15T03:50:52.051Z,1027.25
2019-02-15T03:51:32.651Z,1027.25
2019-02-15T03:52:13.229Z,1027.25
2019-02-15T03:52:53.834Z,1027.23
2019-02-15T03:53:34.437Z,1027.22
2019-02-15T03:54:15.033Z,1027.26
2019-02-15T03:54:55.607Z,1027.21
2019-02-15T03:55:36.210Z,1027.26
2019-02-15T03:56:16.806Z,1027.23
2019-02-15T03:56:57.403Z,1027.27
2019-02-15T03:57:37.989Z,1027.24
2019-02-15T03:58:18.573Z,1027.26
2019-02-15T03:58:59.174Z,1027.27
2019-02-15T03:59:39.761Z,1027.25
2019-02-15T04:00:20.364Z,1027.22
2019-02-15T04:01:00.955Z,1027.22
2019-02-15T04:01:41.611Z,1027.22
2019-02-15T04:02:22.218Z,1027.25
2019-02-15T04:03:02.808Z,1027.19
2019-02-15T04:03:43.392Z,1027.17
2019-02-15T04:04:23.976Z,1027.2
2019-02-15T04:05:04.568Z,1027.2
2019-02-15T04:05:45.165Z,1027.17
2019-02-15T04:06:25.781Z,1027.18
2019-02-15T04:07:06.413Z,1027.23
2019-02-15T04:07:47.019Z,1027.2
2019-02-15T04:08:27.607Z,1027.22
2019-02-15T04:09:08.234Z,1027.19
2019-02-15T04:09:48.793Z,1027.2
2019-02-15T04:10:29.425Z,1027.17
2019-02-15T04:11:10.008Z,1027.19
2019-02-15T04:11:50.618Z,1027.21
2019-02-15T04:12:32.214Z,1027.2
2019-02-15T04:13:11.794Z,1027.2
2019-02-15T04:13:52.385Z,1027.16
2019-02-15T04:14:33.472Z,1027.21
2019-02-15T04:15:13.564Z,1027.18
2019-02-15T04:15:54.152Z,1027.17
2019-02-15T04:16:34.753Z,1027.21
2019-02-15T04:17:15.343Z,1027.18
2019-02-15T04:17:55.937Z,1027.17
2019-02-15T04:18:36.525Z,1027.2
2019-02-15T04:19:17.129Z,1027.16
2019-02-15T04:19:57.729Z,1027.15
2019-02-15T04:20:38.325Z,1027.16
2019-02-15T04:21:18.915Z,1027.19
2019-02-15T04:21:59.530Z,1027.16
2019-02-15T04:22:40.113Z,1027.2
2019-02-15T04:23:20.727Z,1027.18
2019-02-15T04:24:01.330Z,1027.17
2019-02-15T04:24:41.916Z,1027.21
2019-02-15T04:25:22.525Z,1027.21
2019-02-15T04:26:03.117Z,1027.23
2019-02-15T04:26:43.738Z,1027.2
2019-02-15T04:27:24.352Z,1027.19
2019-02-15T04:28:04.937Z,1027.21
2019-02-15T04:28:45.553Z,1027.24
2019-02-15T04:29:26.161Z,1027.22
2019-02-15T04:30:06.755Z,1027.24
2019-02-15T04:30:47.344Z,1027.22
2019-02-15T04:31:27.927Z,1027.24
2019-02-15T04:32:08.512Z,1027.21
2019-02-15T04:32:49.094Z,1027.21
2019-02-15T04:33:29.699Z,1027.23
2019-02-15T04:34:10.290Z,1027.24
2019-02-15T04:34:50.883Z,1027.24
2019-02-15T04:35:31.473Z,1027.21
2019-02-15T04:36:12.063Z,1027.23
2019-02-15T04:36:52.644Z,1027.2
2019-02-15T04:37:33.239Z,1027.24
2019-02-15T04:38:13.873Z,1027.24
2019-02-15T04:38:54.507Z,1027.21
2019-02-15T04:39:35.088Z,1027.22
2019-02-15T04:40:15.687Z,1027.18
2019-02-15T04:40:56.277Z,1027.21
2019-02-15T04:41:36.857Z,1027.21
2019-02-15T04:42:17.447Z,1027.18
2019-02-15T04:42:58.053Z,1027.21
2019-02-15T04:43:38.661Z,1027.19
2019-02-15T04:44:19.266Z,1027.19
2019-02-15T04:44:59.865Z,1027.23
2019-02-15T04:45:40.464Z,1027.18
2019-02-15T04:46:21.081Z,1027.18
2019-02-15T04:47:01.677Z,1027.18
2019-02-15T04:47:42.271Z,1027.22
2019-02-15T04:48:22.865Z,1027.17
2019-02-15T04:49:03.512Z,1027.2
2019-02-15T04:49:44.099Z,1027.19
2019-02-15T04:50:24.690Z,1027.19
2019-02-15T04:51:05.294Z,1027.24
2019-02-15T04:51:45.885Z,1027.24
2019-02-15T04:52:26.490Z,1027.21
2019-02-15T04:53:07.093Z,1027.21
2019-02-15T04:53:47.689Z,1027.22
2019-02-15T04:54:28.321Z,1027.24
2019-02-15T04:55:08.923Z,1027.23
2019-02-15T04:55:49.559Z,1027.24
2019-02-15T04:56:30.170Z,1027.24
2019-02-15T04:57:10.767Z,1027.23
2019-02-15T04:57:51.358Z,1027.22
2019-02-15T04:58:31.969Z,1027.22
2019-02-15T04:59:12.558Z,1027.24
2019-02-15T04:59:53.157Z,1027.26
2019-02-15T05:00:33.743Z,1027.22
2019-02-15T05:01:14.340Z,1027.23
2019-02-15T05:01:54.935Z,1027.21
2019-02-15T05:02:35.541Z,1027.21
2019-02-15T05:03:16.155Z,1027.21
2019-02-15T05:03:56.789Z,1027.23
2019-02-15T05:04:37.385Z,1027.24
2019-02-15T05:05:18.005Z,1027.22
2019-02-15T05:05:58.603Z,1027.24
2019-02-15T05:06:39.198Z,1027.24
2019-02-15T05:07:19.788Z,1027.25
2019-02-15T05:08:00.373Z,1027.27
2019-02-15T05:08:40.975Z,1027.27
2019-02-15T05:09:21.548Z,1027.27
2019-02-15T05:10:02.129Z,1027.23
2019-02-15T05:10:42.722Z,1027.29
2019-02-15T05:11:23.323Z,1027.26
2019-02-15T05:12:03.929Z,1027.23
2019-02-15T05:12:44.509Z,1027.27
2019-02-15T05:13:25.096Z,1027.26
2019-02-15T05:14:05.683Z,1027.24
2019-02-15T05:14:52.702Z,1027.26
2019-02-15T05:15:26.920Z,1027.28
2019-02-15T05:16:07.499Z,1027.28
2019-02-15T05:16:48.133Z,1027.28
2019-02-15T05:17:28.725Z,1027.26
2019-02-15T05:18:09.333Z,1027.3
2019-02-15T05:18:49.953Z,1027.3
2019-02-15T05:19:30.553Z,1027.28
2019-02-15T05:20:11.181Z,1027.27
2019-02-15T05:20:51.761Z,1027.31
2019-02-15T05:21:32.345Z,1027.26
2019-02-15T05:22:12.972Z,1027.27
2019-02-15T05:22:53.578Z,1027.27
2019-02-15T05:23:34.158Z,1027.26
2019-02-15T05:24:14.771Z,1027.29
2019-02-15T05:24:55.367Z,1027.3
2019-02-15T05:25:35.971Z,1027.26
2019-02-15T05:26:16.578Z,1027.27
2019-02-15T05:26:57.176Z,1027.27
2019-02-15T05:27:37.769Z,1027.28
2019-02-15T05:28:18.425Z,1027.29
2019-02-15T05:28:59.061Z,1027.29
2019-02-15T05:29:39.676Z,1027.27
2019-02-15T05:30:20.276Z,1027.28
2019-02-15T05:31:00.883Z,1027.27
2019-02-15T05:31:41.469Z,1027.27
2019-02-15T05:32:22.091Z,1027.27
2019-02-15T05:33:02.693Z,1027.25
2019-02-15T05:33:43.282Z,1027.26
2019-02-15T05:34:23.903Z,1027.29
2019-02-15T05:35:04.500Z,1027.29
2019-02-15T05:35:45.113Z,1027.29
2019-02-15T05:36:25.725Z,1027.26
2019-02-15T05:37:06.351Z,1027.27
2019-02-15T05:37:46.943Z,1027.28
2019-02-15T05:38:27.566Z,1027.27
2019-02-15T05:39:08.180Z,1027.25
2019-02-15T05:39:48.778Z,1027.26
2019-02-15T05:40:29.417Z,1027.25
2019-02-15T05:41:10.018Z,1027.22
2019-02-15T05:41:50.611Z,1027.21
2019-02-15T05:42:31.203Z,1027.24
2019-02-15T05:43:11.795Z,1027.23
2019-02-15T05:43:52.389Z,1027.24
2019-02-15T05:44:33.003Z,1027.2
2019-02-15T05:45:13.585Z,1027.21
2019-02-15T05:45:54.191Z,1027.23
2019-02-15T05:46:34.771Z,1027.22
2019-02-15T05:47:15.379Z,1027.24
2019-02-15T05:47:55.972Z,1027.25
2019-02-15T05:48:36.586Z,1027.28
2019-02-15T05:49:17.171Z,1027.28
2019-02-15T05:49:57.753Z,1027.28
2019-02-15T05:50:38.349Z,1027.28
2019-02-15T05:51:18.936Z,1027.29
2019-02-15T05:51:59.523Z,1027.28
2019-02-15T05:52:40.114Z,1027.33
2019-02-15T05:53:20.707Z,1027.31
2019-02-15T05:54:01.301Z,1027.3
2019-02-15T05:54:41.918Z,1027.34
2019-02-15T05:55:22.519Z,1027.36
2019-02-15T05:56:03.119Z,1027.31
2019-02-15T05:56:43.704Z,1027.35
2019-02-15T05:57:24.305Z,1027.32
2019-02-15T05:58:04.921Z,1027.35
2019-02-15T05:58:45.524Z,1027.33
2019-02-15T05:59:26.101Z,1027.36
2019-02-15T06:00:06.695Z,1027.35
2019-02-15T06:00:47.326Z,1027.35
2019-02-15T06:01:27.936Z,1027.37
2019-02-15T06:02:08.589Z,1027.38
2019-02-15T06:02:49.245Z,1027.38
2019-02-15T06:03:29.847Z,1027.37
2019-02-15T06:04:10.484Z,1027.39
2019-02-15T06:04:51.094Z,1027.37
2019-02-15T06:05:31.713Z,1027.36
2019-02-15T06:06:12.349Z,1027.4
2019-02-15T06:06:52.952Z,1027.37
2019-02-15T06:07:33.636Z,1027.35
2019-02-15T06:08:14.282Z,1027.35
2019-02-15T06:08:54.895Z,1027.36
2019-02-15T06:09:35.490Z,1027.35
2019-02-15T06:10:16.145Z,1027.37
2019-02-15T06:11:06.412Z,1027.37
2019-02-15T06:11:37.380Z,1027.37
2019-02-15T06:12:17.973Z,1027.38
2019-02-15T06:12:58.574Z,1027.43
2019-02-15T06:13:39.194Z,1027.41
2019-02-15T06:14:19.785Z,1027.42
2019-02-15T06:15:00.462Z,1027.44
2019-02-15T06:15:40.947Z,1027.44
2019-02-15T06:16:21.533Z,1027.48
2019-02-15T06:17:02.144Z,1027.48
2019-02-15T06:17:42.754Z,1027.48
2019-02-15T06:18:23.400Z,1027.47
2019-02-15T06:19:04.007Z,1027.48
2019-02-15T06:19:44.599Z,1027.48
2019-02-15T06:20:25.195Z,1027.51
2019-02-15T06:21:05.798Z,1027.51
2019-02-15T06:21:46.469Z,1027.53
2019-02-15T06:22:27.069Z,1027.52
2019-02-15T06:23:07.681Z,1027.53
2019-02-15T06:23:48.272Z,1027.5
2019-02-15T06:24:28.869Z,1027.55
2019-02-15T06:25:09.459Z,1027.56
2019-02-15T06:25:50.087Z,1027.57
2019-02-15T06:26:30.669Z,1027.56
2019-02-15T06:27:11.280Z,1027.57
2019-02-15T06:27:51.886Z,1027.62
2019-02-15T06:28:32.490Z,1027.59
2019-02-15T06:29:13.077Z,1027.64
2019-02-15T06:29:53.678Z,1027.64
2019-02-15T06:30:34.271Z,1027.6
2019-02-15T06:31:14.872Z,1027.63
2019-02-15T06:31:55.465Z,1027.62
2019-02-15T06:32:36.057Z,1027.64
2019-02-15T06:33:16.644Z,1027.67
2019-02-15T06:33:57.239Z,1027.68
2019-02-15T06:34:37.844Z,1027.7
2019-02-15T06:35:18.435Z,1027.66
2019-02-15T06:35:59.029Z,1027.69
2019-02-15T06:36:39.624Z,1027.69
2019-02-15T06:37:20.203Z,1027.68
2019-02-15T06:38:00.823Z,1027.71
2019-02-15T06:38:41.416Z,1027.69
2019-02-15T06:39:22.048Z,1027.7
2019-02-15T06:40:02.651Z,1027.69
2019-02-15T06:40:43.248Z,1027.74
2019-02-15T06:41:23.831Z,1027.71
2019-02-15T06:42:04.444Z,1027.75
2019-02-15T06:42:45.074Z,1027.74
2019-02-15T06:43:25.662Z,1027.71
2019-02-15T06:44:06.316Z,1027.75
2019-02-15T06:44:46.935Z,1027.76
2019-02-15T06:45:27.529Z,1027.77
2019-02-15T06:46:08.134Z,1027.79
2019-02-15T06:46:48.777Z,1027.8
2019-02-15T06:47:29.363Z,1027.79
2019-02-15T06:48:09.974Z,1027.81
2019-02-15T06:48:50.572Z,1027.8
2019-02-15T06:49:31.173Z,1027.79
2019-02-15T06:50:11.808Z,1027.83
2019-02-15T06:50:52.377Z,1027.8
2019-02-15T06:51:32.970Z,1027.82
2019-02-15T06:52:13.560Z,1027.82
2019-02-15T06:52:54.178Z,1027.79
2019-02-15T06:53:34.800Z,1027.81
2019-02-15T06:54:15.383Z,1027.84
2019-02-15T06:54:55.988Z,1027.83
2019-02-15T06:55:36.588Z,1027.87
2019-02-15T06:56:17.192Z,1027.85
2019-02-15T06:56:57.840Z,1027.87
2019-02-15T06:57:38.459Z,1027.82
2019-02-15T06:58:19.097Z,1027.86
2019-02-15T06:58:59.760Z,1027.86
2019-02-15T06:59:40.383Z,1027.9
2019-02-15T07:00:20.966Z,1027.89
2019-02-15T07:01:01.569Z,1027.87
2019-02-15T07:01:42.192Z,1027.9
2019-02-15T07:02:22.807Z,1027.9
2019-02-15T07:03:03.403Z,1027.94
2019-02-15T07:03:44.002Z,1027.89
2019-02-15T07:04:24.618Z,1027.92
2019-02-15T07:05:05.197Z,1027.95
2019-02-15T07:05:45.783Z,1027.98
2019-02-15T07:06:26.380Z,1027.96
2019-02-15T07:07:06.973Z,1027.95
2019-02-15T07:07:47.581Z,1028.01
2019-02-15T07:08:28.171Z,1028
2019-02-15T07:09:08.773Z,1028
2019-02-15T07:09:49.374Z,1028.02
2019-02-15T07:10:30.014Z,1028.04
2019-02-15T07:11:10.632Z,1028.05
2019-02-15T07:11:51.235Z,1028.07
2019-02-15T07:12:31.877Z,1028.07
2019-02-15T07:13:12.473Z,1028.1
2019-02-15T07:13:53.057Z,1028.09
2019-02-15T07:14:33.632Z,1028.07
2019-02-15T07:15:14.287Z,1028.13
2019-02-15T07:15:54.882Z,1028.09
2019-02-15T07:16:35.482Z,1028.12
2019-02-15T07:17:16.085Z,1028.13
2019-02-15T07:17:56.663Z,1028.15
2019-02-15T07:18:37.250Z,1028.11
2019-02-15T07:19:17.832Z,1028.14
2019-02-15T07:19:58.424Z,1028.15
2019-02-15T07:20:39.006Z,1028.15
2019-02-15T07:21:19.610Z,1028.15
2019-02-15T07:22:00.231Z,1028.14
2019-02-15T07:22:40.810Z,1028.14
2019-02-15T07:23:21.417Z,1028.14
2019-02-15T07:24:02.018Z,1028.15
2019-02-15T07:24:42.634Z,1028.12
2019-02-15T07:25:23.228Z,1028.14
2019-02-15T07:26:03.819Z,1028.16
2019-02-15T07:26:44.408Z,1028.13
2019-02-15T07:27:25.012Z,1028.17
2019-02-15T07:28:05.609Z,1028.17
2019-02-15T07:28:46.204Z,1028.18
2019-02-15T07:29:26.802Z,1028.16
2019-02-15T07:30:07.383Z,1028.2
2019-02-15T07:30:48.045Z,1028.19
2019-02-15T07:31:28.577Z,1028.17
2019-02-15T07:32:09.178Z,1028.21
2019-02-15T07:32:49.792Z,1028.2
2019-02-15T07:33:30.396Z,1028.21
2019-02-15T07:34:11.001Z,1028.21
2019-02-15T07:34:51.615Z,1028.22
2019-02-15T07:35:32.225Z,1028.21
2019-02-15T07:36:12.827Z,1028.23
2019-02-15T07:36:53.430Z,1028.26
2019-02-15T07:37:34.019Z,1028.24
2019-02-15T07:38:14.624Z,1028.24
2019-02-15T07:38:55.224Z,1028.24
2019-02-15T07:39:35.818Z,1028.27
2019-02-15T07:40:16.404Z,1028.28
2019-02-15T07:40:56.995Z,1028.24
2019-02-15T07:41:37.583Z,1028.28
2019-02-15T07:42:18.262Z,1028.26
2019-02-15T07:42:58.870Z,1028.28
2019-02-15T07:43:39.458Z,1028.27
2019-02-15T07:44:20.058Z,1028.25
2019-02-15T07:45:00.642Z,1028.31
2019-02-15T07:45:42.962Z,1028.29
2019-02-15T07:46:21.831Z,1028.3
2019-02-15T07:47:02.449Z,1028.35
2019-02-15T07:47:43.020Z,1028.36
2019-02-15T07:48:23.653Z,1028.35
2019-02-15T07:49:04.240Z,1028.39
2019-02-15T07:49:44.840Z,1028.41
2019-02-15T07:50:25.450Z,1028.42
2019-02-15T07:51:09.477Z,1028.44
2019-02-15T07:51:46.634Z,1028.44
2019-02-15T07:52:27.243Z,1028.46
2019-02-15T07:53:09.106Z,1028.42
2019-02-15T07:53:48.438Z,1028.47
2019-02-15T07:54:29.029Z,1028.44
2019-02-15T07:55:09.703Z,1028.46
2019-02-15T07:55:50.292Z,1028.5
2019-02-15T07:56:30.872Z,1028.5
2019-02-15T07:57:11.486Z,1028.49
2019-02-15T07:57:52.077Z,1028.5
2019-02-15T07:58:32.677Z,1028.52
2019-02-15T07:59:13.293Z,1028.53
2019-02-15T07:59:53.890Z,1028.5
2019-02-15T08:00:34.478Z,1028.5
2019-02-15T08:01:15.066Z,1028.52
2019-02-15T08:02:01.558Z,1028.57
2019-02-15T08:02:36.272Z,1028.54
2019-02-15T08:03:16.877Z,1028.57
2019-02-15T08:03:57.486Z,1028.6
2019-02-15T08:04:38.094Z,1028.54
2019-02-15T08:05:18.682Z,1028.57
2019-02-15T08:05:59.272Z,1028.55
2019-02-15T08:06:39.865Z,1028.6
2019-02-15T08:07:20.474Z,1028.56
2019-02-15T08:08:01.084Z,1028.62
2019-02-15T08:08:41.686Z,1028.6
2019-02-15T08:09:22.280Z,1028.6
2019-02-15T08:10:02.896Z,1028.59
2019-02-15T08:10:43.482Z,1028.59
2019-02-15T08:11:24.073Z,1028.58
2019-02-15T08:12:04.660Z,1028.57
2019-02-15T08:12:45.260Z,1028.58